sensor_id;sensor_type;location;lat;lon;timestamp;pressure;altitude;pressure_sealevel;temperature;humidity
78643;BME280;67954;47.618;17.606;2023-05-10T00:00:06;100310.81;;;13.82;58.88
78643;BME280;67954;47.618;17.606;2023-05-10T00:00:37;100304.41;;;13.83;59.10
78643;BME280;67954;47.618;17.606;2023-05-10T00:01:09;100309.78;;;13.83;59.46
78643;BME280;67954;47.618;17.606;2023-05-10T00:01:40;100314.34;;;13.83;58.77
78643;BME280;67954;47.618;17.606;2023-05-10T00:02:11;100307.25;;;13.82;58.74
78643;BME280;67954;47.618;17.606;2023-05-10T00:02:43;100315.53;;;13.72;59.10
78643;BME280;67954;47.618;17.606;2023-05-10T00:03:14;100306.56;;;13.72;58.92
78643;BME280;67954;47.618;17.606;2023-05-10T00:03:44;100301.69;;;13.75;59.76
78643;BME280;67954;47.618;17.606;2023-05-10T00:04:16;100315.34;;;13.74;59.06
78643;BME280;67954;47.618;17.606;2023-05-10T00:04:47;100310.28;;;13.71;59.67
78643;BME280;67954;47.618;17.606;2023-05-10T00:05:18;100309.44;;;13.70;59.26
78643;BME280;67954;47.618;17.606;2023-05-10T00:05:50;100307.41;;;13.72;60.39
78643;BME280;67954;47.618;17.606;2023-05-10T00:06:20;100308.28;;;13.73;59.19
78643;BME280;67954;47.618;17.606;2023-05-10T00:06:51;100308.44;;;13.71;59.76
78643;BME280;67954;47.618;17.606;2023-05-10T00:07:22;100302.19;;;13.71;59.48
78643;BME280;67954;47.618;17.606;2023-05-10T00:07:54;100300.66;;;13.68;59.60
78643;BME280;67954;47.618;17.606;2023-05-10T00:08:24;100299.81;;;13.68;59.39
78643;BME280;67954;47.618;17.606;2023-05-10T00:08:55;100302.34;;;13.69;58.93
78643;BME280;67954;47.618;17.606;2023-05-10T00:09:27;100303.34;;;13.68;59.42
78643;BME280;67954;47.618;17.606;2023-05-10T00:09:58;100303.34;;;13.68;59.35
78643;BME280;67954;47.618;17.606;2023-05-10T00:10:28;100297.28;;;13.66;59.54
78643;BME280;67954;47.618;17.606;2023-05-10T00:11:00;100301.66;;;13.67;59.34
78643;BME280;67954;47.618;17.606;2023-05-10T00:11:32;100299.28;;;13.64;59.83
78643;BME280;67954;47.618;17.606;2023-05-10T00:12:04;100302.50;;;13.59;59.56
78643;BME280;67954;47.618;17.606;2023-05-10T00:12:35;100301.50;;;13.61;60.10
78643;BME280;67954;47.618;17.606;2023-05-10T00:13:07;100300.63;;;13.52;59.67
78643;BME280;67954;47.618;17.606;2023-05-10T00:13:37;100299.44;;;13.54;59.89
78643;BME280;67954;47.618;17.606;2023-05-10T00:14:08;100303.00;;;13.55;59.78
78643;BME280;67954;47.618;17.606;2023-05-10T00:14:40;100305.00;;;13.53;59.49
78643;BME280;67954;47.618;17.606;2023-05-10T00:15:11;100300.13;;;13.48;59.84
78643;BME280;67954;47.618;17.606;2023-05-10T00:15:41;100298.25;;;13.41;60.14
78643;BME280;67954;47.618;17.606;2023-05-10T00:16:12;100304.47;;;13.41;60.42
78643;BME280;67954;47.618;17.606;2023-05-10T00:16:44;100300.63;;;13.44;60.04
78643;BME280;67954;47.618;17.606;2023-05-10T00:17:15;100299.75;;;13.43;59.87
78643;BME280;67954;47.618;17.606;2023-05-10T00:17:46;100297.91;;;13.44;60.08
78643;BME280;67954;47.618;17.606;2023-05-10T00:18:17;100293.84;;;13.40;60.15
78643;BME280;67954;47.618;17.606;2023-05-10T00:18:48;100291.84;;;13.42;59.91
78643;BME280;67954;47.618;17.606;2023-05-10T00:19:19;100296.53;;;13.40;60.14
78643;BME280;67954;47.618;17.606;2023-05-10T00:19:50;100294.00;;;13.38;60.18
78643;BME280;67954;47.618;17.606;2023-05-10T00:20:22;100293.16;;;13.38;60.02
78643;BME280;67954;47.618;17.606;2023-05-10T00:20:53;100289.81;;;13.36;60.32
78643;BME280;67954;47.618;17.606;2023-05-10T00:21:23;100295.84;;;13.38;60.87
78643;BME280;67954;47.618;17.606;2023-05-10T00:21:55;100292.31;;;13.37;60.09
78643;BME280;67954;47.618;17.606;2023-05-10T00:22:26;100293.16;;;13.38;60.72
78643;BME280;67954;47.618;17.606;2023-05-10T00:22:57;100291.31;;;13.38;60.53
78643;BME280;67954;47.618;17.606;2023-05-10T00:23:29;100292.31;;;13.37;60.32
78643;BME280;67954;47.618;17.606;2023-05-10T00:24:00;100293.50;;;13.35;60.49
78643;BME280;67954;47.618;17.606;2023-05-10T00:24:30;100289.44;;;13.31;60.34
78643;BME280;67954;47.618;17.606;2023-05-10T00:25:01;100295.69;;;13.31;60.62
78643;BME280;67954;47.618;17.606;2023-05-10T00:25:33;100296.84;;;13.29;61.04
78643;BME280;67954;47.618;17.606;2023-05-10T00:26:04;100295.69;;;13.23;61.19
78643;BME280;67954;47.618;17.606;2023-05-10T00:26:36;100296.53;;;13.23;61.27
78643;BME280;67954;47.618;17.606;2023-05-10T00:27:08;100292.44;;;13.19;60.97
78643;BME280;67954;47.618;17.606;2023-05-10T00:27:38;100294.16;;;13.20;61.13
78643;BME280;67954;47.618;17.606;2023-05-10T00:28:09;100294.31;;;13.19;61.29
78643;BME280;67954;47.618;17.606;2023-05-10T00:28:41;100290.91;;;13.17;61.54
78643;BME280;67954;47.618;17.606;2023-05-10T00:29:12;100290.06;;;13.16;61.00
78643;BME280;67954;47.618;17.606;2023-05-10T00:29:42;100297.09;;;13.09;62.24
78643;BME280;67954;47.618;17.606;2023-05-10T00:30:14;100294.06;;;13.12;61.55
78643;BME280;67954;47.618;17.606;2023-05-10T00:30:45;100292.56;;;13.10;61.30
78643;BME280;67954;47.618;17.606;2023-05-10T00:31:16;100287.81;;;13.12;61.55
78643;BME280;67954;47.618;17.606;2023-05-10T00:31:48;100291.38;;;13.12;61.46
78643;BME280;67954;47.618;17.606;2023-05-10T00:32:18;100289.50;;;13.13;61.59
78643;BME280;67954;47.618;17.606;2023-05-10T00:32:49;100290.34;;;13.13;61.34
78643;BME280;67954;47.618;17.606;2023-05-10T00:33:20;100297.75;;;13.11;61.77
78643;BME280;67954;47.618;17.606;2023-05-10T00:33:52;100290.19;;;13.07;61.82
78643;BME280;67954;47.618;17.606;2023-05-10T00:34:22;100291.19;;;13.06;62.00
78643;BME280;67954;47.618;17.606;2023-05-10T00:34:53;100292.88;;;13.07;61.93
78643;BME280;67954;47.618;17.606;2023-05-10T00:35:25;100290.97;;;12.99;62.07
78643;BME280;67954;47.618;17.606;2023-05-10T00:35:56;100296.38;;;12.99;61.65
78643;BME280;67954;47.618;17.606;2023-05-10T00:36:27;100293.19;;;12.96;62.57
78643;BME280;67954;47.618;17.606;2023-05-10T00:36:59;100296.56;;;12.98;62.33
78643;BME280;67954;47.618;17.606;2023-05-10T00:37:29;100293.34;;;12.94;62.39
78643;BME280;67954;47.618;17.606;2023-05-10T00:38:00;100288.41;;;12.89;62.19
78643;BME280;67954;47.618;17.606;2023-05-10T00:38:31;100288.94;;;12.93;62.15
78643;BME280;67954;47.618;17.606;2023-05-10T00:39:03;100289.78;;;12.94;62.11
78643;BME280;67954;47.618;17.606;2023-05-10T00:39:34;100288.09;;;12.93;62.54
78643;BME280;67954;47.618;17.606;2023-05-10T00:40:06;100289.25;;;12.90;62.20
78643;BME280;67954;47.618;17.606;2023-05-10T00:40:37;100283.88;;;12.90;62.52
78643;BME280;67954;47.618;17.606;2023-05-10T00:41:08;100286.25;;;12.93;62.65
78643;BME280;67954;47.618;17.606;2023-05-10T00:41:41;100287.25;;;12.92;62.32
78643;BME280;67954;47.618;17.606;2023-05-10T00:42:12;100283.88;;;12.90;62.69
78643;BME280;67954;47.618;17.606;2023-05-10T00:42:43;100282.50;;;12.86;62.19
78643;BME280;67954;47.618;17.606;2023-05-10T00:43:14;100281.47;;;12.79;63.89
78643;BME280;67954;47.618;17.606;2023-05-10T00:43:45;100278.44;;;12.82;62.81
78643;BME280;67954;47.618;17.606;2023-05-10T00:44:16;100284.53;;;12.84;63.12
78643;BME280;67954;47.618;17.606;2023-05-10T00:44:48;100278.94;;;12.85;62.73
78643;BME280;67954;47.618;17.606;2023-05-10T00:45:19;100281.31;;;12.88;62.75
78643;BME280;67954;47.618;17.606;2023-05-10T00:45:52;100280.47;;;12.88;62.63
78643;BME280;67954;47.618;17.606;2023-05-10T00:46:23;100291.81;;;12.92;63.01
78643;BME280;67954;47.618;17.606;2023-05-10T00:46:55;100283.88;;;12.90;62.66
78643;BME280;67954;47.618;17.606;2023-05-10T00:47:27;100279.63;;;12.87;63.04
78643;BME280;67954;47.618;17.606;2023-05-10T00:47:59;100283.16;;;12.80;63.05
78643;BME280;67954;47.618;17.606;2023-05-10T00:48:30;100279.28;;;12.82;63.15
78643;BME280;67954;47.618;17.606;2023-05-10T00:49:02;100280.16;;;12.83;63.56
78643;BME280;67954;47.618;17.606;2023-05-10T00:49:34;100286.22;;;12.85;63.44
78643;BME280;67954;47.618;17.606;2023-05-10T00:50:06;100284.69;;;12.82;63.73
78643;BME280;67954;47.618;17.606;2023-05-10T00:50:39;100283.16;;;12.80;63.67
78643;BME280;67954;47.618;17.606;2023-05-10T00:51:10;100286.53;;;12.82;63.63
78643;BME280;67954;47.618;17.606;2023-05-10T00:51:42;100283.16;;;12.80;63.66
78643;BME280;67954;47.618;17.606;2023-05-10T00:52:14;100283.16;;;12.80;63.37
78643;BME280;67954;47.618;17.606;2023-05-10T00:52:46;100288.53;;;12.80;63.90
78643;BME280;67954;47.618;17.606;2023-05-10T00:53:18;100278.59;;;12.80;63.68
78643;BME280;67954;47.618;17.606;2023-05-10T00:53:49;100280.78;;;12.77;63.52
78643;BME280;67954;47.618;17.606;2023-05-10T00:54:21;100278.22;;;12.75;63.51
78643;BME280;67954;47.618;17.606;2023-05-10T00:54:54;100275.53;;;12.75;63.55
78643;BME280;67954;47.618;17.606;2023-05-10T00:55:25;100272.66;;;12.69;63.54
78643;BME280;67954;47.618;17.606;2023-05-10T00:55:56;100267.19;;;12.61;63.75
78643;BME280;67954;47.618;17.606;2023-05-10T00:56:28;100280.03;;;12.59;63.78
78643;BME280;67954;47.618;17.606;2023-05-10T00:57:01;100274.44;;;12.60;64.21
78643;BME280;67954;47.618;17.606;2023-05-10T00:57:32;100280.03;;;12.59;64.06
78643;BME280;67954;47.618;17.606;2023-05-10T00:58:04;100274.25;;;12.53;63.99
78643;BME280;67954;47.618;17.606;2023-05-10T00:58:36;100273.03;;;12.48;64.57
78643;BME280;67954;47.618;17.606;2023-05-10T00:59:08;100281.59;;;12.43;64.71
78643;BME280;67954;47.618;17.606;2023-05-10T00:59:39;100277.69;;;12.38;64.82
78643;BME280;67954;47.618;17.606;2023-05-10T01:00:12;100277.53;;;12.39;64.53
78643;BME280;67954;47.618;17.606;2023-05-10T01:00:49;100272.72;;;12.25;65.26
78643;BME280;67954;47.618;17.606;2023-05-10T01:01:21;100278.25;;;12.24;65.49
78643;BME280;67954;47.618;17.606;2023-05-10T01:01:53;100279.19;;;12.32;64.77
78643;BME280;67954;47.618;17.606;2023-05-10T01:02:24;100281.22;;;12.38;65.26
78643;BME280;67954;47.618;17.606;2023-05-10T01:02:55;100275.53;;;12.41;64.87
78643;BME280;67954;47.618;17.606;2023-05-10T01:03:26;100275.38;;;12.43;64.56
78643;BME280;67954;47.618;17.606;2023-05-10T01:03:58;100274.84;;;12.39;64.88
78643;BME280;67954;47.618;17.606;2023-05-10T01:04:28;100277.38;;;12.41;64.77
78643;BME280;67954;47.618;17.606;2023-05-10T01:05:02;100268.59;;;12.39;65.20
78643;BME280;67954;47.618;17.606;2023-05-10T01:05:35;100272.09;;;12.31;65.12
78643;BME280;67954;47.618;17.606;2023-05-10T01:06:06;100274.72;;;12.23;65.70
78643;BME280;67954;47.618;17.606;2023-05-10T01:06:37;100272.28;;;12.12;66.36
78643;BME280;67954;47.618;17.606;2023-05-10T01:07:09;100273.13;;;12.12;66.20
78643;BME280;67954;47.618;17.606;2023-05-10T01:07:40;100273.38;;;12.19;66.14
78643;BME280;67954;47.618;17.606;2023-05-10T01:08:11;100274.41;;;12.26;65.57
78643;BME280;67954;47.618;17.606;2023-05-10T01:08:43;100273.72;;;12.24;65.63
78643;BME280;67954;47.618;17.606;2023-05-10T01:09:14;100274.56;;;12.25;65.52
78643;BME280;67954;47.618;17.606;2023-05-10T01:09:45;100270.19;;;12.24;65.42
78643;BME280;67954;47.618;17.606;2023-05-10T01:10:17;100277.25;;;12.25;65.28
78643;BME280;67954;47.618;17.606;2023-05-10T01:10:49;100275.25;;;12.27;65.50
78643;BME280;67954;47.618;17.606;2023-05-10T01:11:20;100271.56;;;12.28;65.06
78643;BME280;67954;47.618;17.606;2023-05-10T01:11:53;100277.81;;;12.28;65.74
78643;BME280;67954;47.618;17.606;2023-05-10T01:12:26;100279.50;;;12.29;64.89
78643;BME280;67954;47.618;17.606;2023-05-10T01:12:59;100270.03;;;12.25;65.70
78643;BME280;67954;47.618;17.606;2023-05-10T01:13:38;100274.25;;;12.28;65.98
78643;BME280;67954;47.618;17.606;2023-05-10T01:14:09;100279.13;;;12.24;65.93
78643;BME280;67954;47.618;17.606;2023-05-10T01:14:40;100276.72;;;12.21;65.21
78643;BME280;67954;47.618;17.606;2023-05-10T01:15:13;100281.50;;;12.27;65.35
78643;BME280;67954;47.618;17.606;2023-05-10T01:15:46;100282.34;;;12.28;65.86
78643;BME280;67954;47.618;17.606;2023-05-10T01:16:17;100275.41;;;12.25;65.46
78643;BME280;67954;47.618;17.606;2023-05-10T01:16:49;100278.09;;;12.25;65.92
78643;BME280;67954;47.618;17.606;2023-05-10T01:17:22;100274.72;;;12.23;65.73
78643;BME280;67954;47.618;17.606;2023-05-10T01:17:53;100274.72;;;12.23;65.71
78643;BME280;67954;47.618;17.606;2023-05-10T01:18:26;100271.88;;;12.25;65.55
78643;BME280;67954;47.618;17.606;2023-05-10T01:18:57;100265.63;;;12.24;65.72
78643;BME280;67954;47.618;17.606;2023-05-10T01:19:29;100272.03;;;12.23;65.73
78643;BME280;67954;47.618;17.606;2023-05-10T01:20:06;100270.50;;;12.21;65.94
78643;BME280;67954;47.618;17.606;2023-05-10T01:20:43;100267.78;;;12.21;65.68
78643;BME280;67954;47.618;17.606;2023-05-10T01:21:27;100266.50;;;12.25;66.01
78643;BME280;67954;47.618;17.606;2023-05-10T01:22:11;100272.41;;;12.28;65.83
78643;BME280;67954;47.618;17.606;2023-05-10T01:23:16;100269.88;;;12.27;65.67
78643;BME280;67954;47.618;17.606;2023-05-10T01:24:12;100271.34;;;12.21;66.13
78643;BME280;67954;47.618;17.606;2023-05-10T01:25:13;100266.78;;;12.22;66.34
78643;BME280;67954;47.618;17.606;2023-05-10T01:26:15;100272.53;;;12.19;66.52
78643;BME280;67954;47.618;17.606;2023-05-10T01:27:09;100273.53;;;12.18;66.53
78643;BME280;67954;47.618;17.606;2023-05-10T01:28:12;100271.59;;;12.10;66.31
78643;BME280;67954;47.618;17.606;2023-05-10T01:29:11;100269.56;;;12.04;66.41
78643;BME280;67954;47.618;17.606;2023-05-10T01:30:12;100277.25;;;11.99;66.46
78643;BME280;67954;47.618;17.606;2023-05-10T01:31:03;100279.56;;;11.94;66.53
78643;BME280;67954;47.618;17.606;2023-05-10T01:32:11;100275.94;;;11.85;67.00
78643;BME280;67954;47.618;17.606;2023-05-10T01:32:53;100269.25;;;11.89;67.01
78643;BME280;67954;47.618;17.606;2023-05-10T01:33:30;100270.41;;;11.87;67.50
78643;BME280;67954;47.618;17.606;2023-05-10T01:34:09;100277.09;;;11.82;68.17
78643;BME280;67954;47.618;17.606;2023-05-10T01:34:52;100278.44;;;11.78;67.25
78643;BME280;67954;47.618;17.606;2023-05-10T01:35:33;100277.84;;;11.75;67.94
78643;BME280;67954;47.618;17.606;2023-05-10T01:36:14;100269.78;;;11.75;68.06
78643;BME280;67954;47.618;17.606;2023-05-10T01:36:53;100272.63;;;11.73;68.27
78643;BME280;67954;47.618;17.606;2023-05-10T01:37:33;100272.06;;;11.70;68.17
78643;BME280;67954;47.618;17.606;2023-05-10T01:38:22;100274.31;;;11.74;67.60
78643;BME280;67954;47.618;17.606;2023-05-10T01:39:01;100269.94;;;11.73;67.97
78643;BME280;67954;47.618;17.606;2023-05-10T01:39:40;100269.22;;;11.71;68.00
78643;BME280;67954;47.618;17.606;2023-05-10T01:40:20;100274.94;;;11.68;67.99
78643;BME280;67954;47.618;17.606;2023-05-10T01:41:08;100273.41;;;11.66;68.05
78643;BME280;67954;47.618;17.606;2023-05-10T01:41:49;100272.72;;;11.64;68.24
78643;BME280;67954;47.618;17.606;2023-05-10T01:42:26;100270.47;;;11.59;68.20
78643;BME280;67954;47.618;17.606;2023-05-10T01:43:05;100273.63;;;11.55;68.26
78643;BME280;67954;47.618;17.606;2023-05-10T01:43:47;100272.25;;;11.51;68.72
78643;BME280;67954;47.618;17.606;2023-05-10T01:44:34;100266.72;;;11.52;68.23
78643;BME280;67954;47.618;17.606;2023-05-10T01:45:13;100265.31;;;11.48;68.38
78643;BME280;67954;47.618;17.606;2023-05-10T01:45:53;100267.00;;;11.49;68.67
78643;BME280;67954;47.618;17.606;2023-05-10T01:46:34;100265.09;;;11.41;68.45
78643;BME280;67954;47.618;17.606;2023-05-10T01:47:11;100271.16;;;11.43;68.57
78643;BME280;67954;47.618;17.606;2023-05-10T01:47:44;100263.25;;;11.42;68.58
78643;BME280;67954;47.618;17.606;2023-05-10T01:48:18;100271.63;;;11.39;68.59
78643;BME280;67954;47.618;17.606;2023-05-10T01:48:54;100270.38;;;11.33;69.31
78643;BME280;67954;47.618;17.606;2023-05-10T01:49:30;100279.44;;;11.32;68.88
78643;BME280;67954;47.618;17.606;2023-05-10T01:50:04;100278.59;;;11.32;69.20
78643;BME280;67954;47.618;17.606;2023-05-10T01:50:40;100269.69;;;11.31;69.35
78643;BME280;67954;47.618;17.606;2023-05-10T01:51:14;100272.44;;;11.22;69.23
78643;BME280;67954;47.618;17.606;2023-05-10T01:51:50;100277.97;;;11.20;69.11
78643;BME280;67954;47.618;17.606;2023-05-10T01:52:28;100274.53;;;11.28;68.95
78643;BME280;67954;47.618;17.606;2023-05-10T01:53:01;100274.38;;;11.29;69.16
78643;BME280;67954;47.618;17.606;2023-05-10T01:53:37;100275.06;;;11.31;69.38
78643;BME280;67954;47.618;17.606;2023-05-10T01:54:13;100275.81;;;11.24;68.96
78643;BME280;67954;47.618;17.606;2023-05-10T01:54:52;100264.22;;;11.23;69.24
78643;BME280;67954;47.618;17.606;2023-05-10T01:55:28;100275.81;;;11.24;69.31
78643;BME280;67954;47.618;17.606;2023-05-10T01:56:01;100269.06;;;11.20;69.66
78643;BME280;67954;47.618;17.606;2023-05-10T01:56:35;100268.19;;;11.19;69.94
78643;BME280;67954;47.618;17.606;2023-05-10T01:57:06;100273.72;;;11.18;69.57
78643;BME280;67954;47.618;17.606;2023-05-10T01:57:43;100269.06;;;11.20;69.92
78643;BME280;67954;47.618;17.606;2023-05-10T01:58:19;100271.28;;;11.24;70.02
78643;BME280;67954;47.618;17.606;2023-05-10T01:58:51;100277.22;;;11.28;69.70
78643;BME280;67954;47.618;17.606;2023-05-10T01:59:29;100270.53;;;11.32;69.31
78643;BME280;67954;47.618;17.606;2023-05-10T02:00:03;100268.53;;;11.34;69.57
78643;BME280;67954;47.618;17.606;2023-05-10T02:00:35;100265.28;;;11.30;69.75
78643;BME280;67954;47.618;17.606;2023-05-10T02:01:09;100264.84;;;11.35;69.31
78643;BME280;67954;47.618;17.606;2023-05-10T02:01:41;100264.84;;;11.35;69.36
78643;BME280;67954;47.618;17.606;2023-05-10T02:02:15;100267.25;;;11.38;69.73
78643;BME280;67954;47.618;17.606;2023-05-10T02:02:49;100268.63;;;11.42;69.33
78643;BME280;67954;47.618;17.606;2023-05-10T02:03:24;100267.78;;;11.41;69.64
78643;BME280;67954;47.618;17.606;2023-05-10T02:03:58;100264.63;;;11.46;69.72
78643;BME280;67954;47.618;17.606;2023-05-10T02:04:31;100264.47;;;11.48;69.17
78643;BME280;67954;47.618;17.606;2023-05-10T02:05:06;100262.47;;;11.50;69.22
78643;BME280;67954;47.618;17.606;2023-05-10T02:05:38;100260.34;;;11.53;68.75
78643;BME280;67954;47.618;17.606;2023-05-10T02:06:13;100263.88;;;11.54;68.86
78643;BME280;67954;47.618;17.606;2023-05-10T02:06:46;100260.19;;;11.55;69.03
78643;BME280;67954;47.618;17.606;2023-05-10T02:07:19;100260.34;;;11.53;69.15
78643;BME280;67954;47.618;17.606;2023-05-10T02:07:52;100254.94;;;11.53;69.42
78643;BME280;67954;47.618;17.606;2023-05-10T02:08:24;100257.16;;;11.58;69.19
78643;BME280;67954;47.618;17.606;2023-05-10T02:08:57;100257.31;;;11.56;69.12
78643;BME280;67954;47.618;17.606;2023-05-10T02:09:32;100259.16;;;11.56;69.19
78643;BME280;67954;47.618;17.606;2023-05-10T02:10:04;100257.31;;;11.56;69.03
78643;BME280;67954;47.618;17.606;2023-05-10T02:10:39;100258.69;;;11.60;69.10
78643;BME280;67954;47.618;17.606;2023-05-10T02:11:12;100256.00;;;11.60;69.40
78643;BME280;67954;47.618;17.606;2023-05-10T02:11:44;100260.09;;;11.64;69.50
78643;BME280;67954;47.618;17.606;2023-05-10T02:12:16;100259.09;;;11.65;69.18
78643;BME280;67954;47.618;17.606;2023-05-10T02:12:49;100255.72;;;11.63;69.07
78643;BME280;67954;47.618;17.606;2023-05-10T02:13:21;100255.56;;;11.65;69.56
78643;BME280;67954;47.618;17.606;2023-05-10T02:13:55;100257.94;;;11.68;69.27
78643;BME280;67954;47.618;17.606;2023-05-10T02:14:28;100258.25;;;11.65;69.17
78643;BME280;67954;47.618;17.606;2023-05-10T02:15:03;100251.72;;;11.67;69.33
78643;BME280;67954;47.618;17.606;2023-05-10T02:15:37;100250.88;;;11.67;69.39
78643;BME280;67954;47.618;17.606;2023-05-10T02:16:09;100253.72;;;11.65;69.38
78643;BME280;67954;47.618;17.606;2023-05-10T02:16:43;100246.16;;;11.69;69.32
78643;BME280;67954;47.618;17.606;2023-05-10T02:17:18;100253.56;;;11.67;69.10
78643;BME280;67954;47.618;17.606;2023-05-10T02:17:51;100249.53;;;11.71;68.98
78643;BME280;67954;47.618;17.606;2023-05-10T02:18:24;100254.63;;;11.74;68.89
78643;BME280;67954;47.618;17.606;2023-05-10T02:18:59;100252.78;;;11.74;69.19
78643;BME280;67954;47.618;17.606;2023-05-10T02:19:32;100249.97;;;11.76;69.23
78643;BME280;67954;47.618;17.606;2023-05-10T02:20:06;100252.66;;;11.76;69.43
78643;BME280;67954;47.618;17.606;2023-05-10T02:20:39;100245.28;;;11.78;68.99
78643;BME280;67954;47.618;17.606;2023-05-10T02:21:11;100245.13;;;11.79;68.89
78643;BME280;67954;47.618;17.606;2023-05-10T02:21:45;100246.97;;;11.79;69.42
78643;BME280;67954;47.618;17.606;2023-05-10T02:22:18;100244.44;;;11.77;69.08
78643;BME280;67954;47.618;17.606;2023-05-10T02:22:52;100256.47;;;11.73;69.46
78643;BME280;67954;47.618;17.606;2023-05-10T02:23:25;100251.81;;;11.75;69.43
78643;BME280;67954;47.618;17.606;2023-05-10T02:23:57;100249.41;;;11.72;69.06
78643;BME280;67954;47.618;17.606;2023-05-10T02:24:29;100246.69;;;11.72;69.41
78643;BME280;67954;47.618;17.606;2023-05-10T02:25:04;100249.69;;;11.69;69.07
78643;BME280;67954;47.618;17.606;2023-05-10T02:25:37;100248.53;;;11.72;68.80
78643;BME280;67954;47.618;17.606;2023-05-10T02:26:10;100245.50;;;11.67;69.61
78643;BME280;67954;47.618;17.606;2023-05-10T02:26:45;100242.47;;;11.70;69.57
78643;BME280;67954;47.618;17.606;2023-05-10T02:27:19;100252.03;;;11.64;69.61
78643;BME280;67954;47.618;17.606;2023-05-10T02:27:53;100244.25;;;11.61;69.42
78643;BME280;67954;47.618;17.606;2023-05-10T02:28:27;100248.94;;;11.59;69.12
78643;BME280;67954;47.618;17.606;2023-05-10T02:29:01;100248.09;;;11.59;69.49
78643;BME280;67954;47.618;17.606;2023-05-10T02:29:34;100250.47;;;11.62;69.50
78643;BME280;67954;47.618;17.606;2023-05-10T02:30:10;100248.34;;;11.65;69.51
78643;BME280;67954;47.618;17.606;2023-05-10T02:30:41;100247.25;;;11.58;70.15
78643;BME280;67954;47.618;17.606;2023-05-10T02:31:14;100244.41;;;11.60;69.95
78643;BME280;67954;47.618;17.606;2023-05-10T02:31:47;100245.56;;;11.57;69.84
78643;BME280;67954;47.618;17.606;2023-05-10T02:32:21;100247.88;;;11.52;69.74
78643;BME280;67954;47.618;17.606;2023-05-10T02:32:53;100246.47;;;11.48;70.13
78643;BME280;67954;47.618;17.606;2023-05-10T02:33:26;100239.25;;;11.49;70.27
78643;BME280;67954;47.618;17.606;2023-05-10T02:33:58;100243.25;;;11.44;70.52
78643;BME280;67954;47.618;17.606;2023-05-10T02:34:31;100243.94;;;11.46;70.40
78643;BME280;67954;47.618;17.606;2023-05-10T02:35:03;100242.41;;;11.44;70.05
78643;BME280;67954;47.618;17.606;2023-05-10T02:35:38;100246.47;;;11.48;69.93
78643;BME280;67954;47.618;17.606;2023-05-10T02:36:09;100247.63;;;11.45;70.15
78643;BME280;67954;47.618;17.606;2023-05-10T02:36:41;100245.94;;;11.44;70.13
78643;BME280;67954;47.618;17.606;2023-05-10T02:37:15;100246.78;;;11.45;70.65
78643;BME280;67954;47.618;17.606;2023-05-10T02:37:49;100247.34;;;11.49;70.03
78643;BME280;67954;47.618;17.606;2023-05-10T02:38:22;100250.47;;;11.44;69.72
78643;BME280;67954;47.618;17.606;2023-05-10T02:38:57;100252.88;;;11.47;70.46
78643;BME280;67954;47.618;17.606;2023-05-10T02:39:31;100247.78;;;11.44;70.46
78643;BME280;67954;47.618;17.606;2023-05-10T02:40:03;100251.03;;;11.48;69.85
78643;BME280;67954;47.618;17.606;2023-05-10T02:40:36;100251.88;;;11.48;69.97
78643;BME280;67954;47.618;17.606;2023-05-10T02:41:10;100248.19;;;11.49;70.07
78643;BME280;67954;47.618;17.606;2023-05-10T02:41:42;100254.25;;;11.51;69.91
78643;BME280;67954;47.618;17.606;2023-05-10T02:42:17;100253.56;;;11.49;70.27
78643;BME280;67954;47.618;17.606;2023-05-10T02:42:50;100256.41;;;11.48;69.82
78643;BME280;67954;47.618;17.606;2023-05-10T02:43:23;100249.09;;;11.40;70.57
78643;BME280;67954;47.618;17.606;2023-05-10T02:43:59;100251.78;;;11.40;70.55
78643;BME280;67954;47.618;17.606;2023-05-10T02:44:34;100249.41;;;11.37;70.15
78643;BME280;67954;47.618;17.606;2023-05-10T02:45:11;100260.16;;;11.37;70.59
78643;BME280;67954;47.618;17.606;2023-05-10T02:45:47;100252.53;;;11.32;70.52
78643;BME280;67954;47.618;17.606;2023-05-10T02:46:18;100252.25;;;11.35;70.57
78643;BME280;67954;47.618;17.606;2023-05-10T02:46:49;100252.41;;;11.34;70.64
78643;BME280;67954;47.618;17.606;2023-05-10T02:47:23;100251.63;;;11.24;71.04
78643;BME280;67954;47.618;17.606;2023-05-10T02:47:54;100255.91;;;11.17;71.30
78643;BME280;67954;47.618;17.606;2023-05-10T02:48:25;100249.59;;;11.08;71.44
78643;BME280;67954;47.618;17.606;2023-05-10T02:48:57;100254.69;;;11.11;71.52
78643;BME280;67954;47.618;17.606;2023-05-10T02:49:28;100252.84;;;11.12;71.51
78643;BME280;67954;47.618;17.606;2023-05-10T02:49:59;100252.09;;;10.92;72.53
78643;BME280;67954;47.618;17.606;2023-05-10T02:50:33;100251.31;;;10.82;72.93
78643;BME280;67954;47.618;17.606;2023-05-10T02:51:07;100253.91;;;10.73;73.15
78643;BME280;67954;47.618;17.606;2023-05-10T02:51:43;100254.47;;;10.77;72.89
78643;BME280;67954;47.618;17.606;2023-05-10T02:52:19;100247.91;;;10.80;72.61
78643;BME280;67954;47.618;17.606;2023-05-10T02:52:59;100258.50;;;10.81;72.88
78643;BME280;67954;47.618;17.606;2023-05-10T02:53:31;100258.50;;;10.81;73.10
78643;BME280;67954;47.618;17.606;2023-05-10T02:54:11;100256.97;;;10.79;72.85
78643;BME280;67954;47.618;17.606;2023-05-10T02:54:46;100250.59;;;10.80;72.83
78643;BME280;67954;47.618;17.606;2023-05-10T02:55:22;100245.78;;;10.83;72.58
78643;BME280;67954;47.618;17.606;2023-05-10T02:55:58;100255.44;;;10.76;73.25